Terminal Aerodrome Forecast
Issued by NWS

Home | Current Version | Previous Version | Text Only | Print | Product List | Glossary Off
Versions: 1 2 3 4 5 6 7 8 9 10 11 12 13 14 15 16 17 18 19 20

000
FTUS42 KMHX 200525
TAFOAJ
TAF
KOAJ 200525Z 2006/2106 21008KT P6SM BKN018 OVC250
     FM201200 23008KT P6SM VCSH OVC020
     FM201700 24007KT 3SM +SHRA VCTS SCT025CB OVC050
     FM210100 21005KT 6SM -SHRA OVC020
      AMD LTD TO CLD VIS AND WIND=

USA.gov is the U.S. government's official web portal to all federal, state and local government web resources and services.